createdAt,value
2018-12-23T00:00:17.236Z,7.90
2018-12-23T00:02:52.087Z,7.90
2018-12-23T00:05:26.975Z,7.80
2018-12-23T00:08:04.947Z,7.90
2018-12-23T00:10:48.057Z,8.00
2018-12-23T00:13:22.997Z,8.00
2018-12-23T00:15:57.792Z,7.90
2018-12-23T00:18:32.713Z,7.90
2018-12-23T00:21:11.417Z,8.00
2018-12-23T00:23:47.610Z,7.90
2018-12-23T00:26:21.933Z,7.90
2018-12-23T00:28:50.579Z,7.90
2018-12-23T00:34:16.184Z,8.00
2018-12-23T00:36:53.960Z,7.90
2018-12-23T00:39:30.793Z,7.90
2018-12-23T00:45:00.319Z,7.90
2018-12-23T00:47:39.852Z,8.00
2018-12-23T00:50:13.459Z,8.00
2018-12-23T00:55:54.852Z,8.00
2018-12-23T00:58:30.377Z,8.00
2018-12-23T01:01:06.032Z,8.00
2018-12-23T01:06:32.741Z,8.00
2018-12-23T01:09:07.914Z,8.10
2018-12-23T01:14:51.002Z,8.10
2018-12-23T01:23:21.046Z,8.00
2018-12-23T01:28:47.994Z,8.10
2018-12-23T01:31:21.332Z,8.10
2018-12-23T01:33:49.963Z,8.00
2018-12-23T01:36:28.341Z,8.00
2018-12-23T01:39:04.671Z,8.00
2018-12-23T01:41:38.770Z,8.00
2018-12-23T01:44:12.496Z,8.00
2018-12-23T01:46:48.121Z,8.10
2018-12-23T01:58:14.696Z,8.00
2018-12-23T02:00:55.522Z,8.00
2018-12-23T02:03:28.637Z,8.00
2018-12-23T02:06:00.581Z,8.00
2018-12-23T02:08:36.679Z,8.10
2018-12-23T02:11:05.388Z,8.10
2018-12-23T02:13:48.498Z,8.10
2018-12-23T02:16:40.267Z,8.10
2018-12-23T02:19:15.365Z,8.10
2018-12-23T02:21:53.213Z,8.10
2018-12-23T02:24:21.841Z,8.10
2018-12-23T02:29:46.555Z,8.10
2018-12-23T02:32:17.249Z,8.10
2018-12-23T02:34:50.716Z,8.10
2018-12-23T02:37:43.273Z,8.10
2018-12-23T02:40:17.517Z,8.20
2018-12-23T02:43:03.507Z,8.20
2018-12-23T02:45:38.890Z,8.10
2018-12-23T02:48:13.539Z,8.10
2018-12-23T02:54:55.340Z,8.10
2018-12-23T02:57:26.266Z,8.10
2018-12-23T02:59:56.234Z,8.10
2018-12-23T03:02:47.712Z,8.10
2018-12-23T03:05:21.782Z,8.10
2018-12-23T03:07:52.677Z,8.00
2018-12-23T03:10:22.609Z,8.00
2018-12-23T03:13:01.928Z,8.00
2018-12-23T03:15:33.859Z,8.00
2018-12-23T03:18:03.877Z,8.00
2018-12-23T03:20:33.836Z,8.00
2018-12-23T03:23:03.774Z,7.90
2018-12-23T03:25:33.793Z,7.90
2018-12-23T03:28:03.786Z,7.90
2018-12-23T03:30:35.802Z,8.00
2018-12-23T03:33:05.790Z,7.90
2018-12-23T03:35:35.681Z,7.90
2018-12-23T03:38:06.692Z,7.90
2018-12-23T03:40:38.687Z,7.90
2018-12-23T03:43:09.606Z,7.90
2018-12-23T03:45:46.425Z,7.90
2018-12-23T03:48:16.301Z,7.90
2018-12-23T03:50:46.228Z,8.00
2018-12-23T03:53:16.102Z,8.00
2018-12-23T03:55:48.028Z,8.00
2018-12-23T03:58:21.086Z,8.00
2018-12-23T04:00:52.002Z,8.00
2018-12-23T04:03:23.957Z,8.00
2018-12-23T04:05:54.871Z,8.00
2018-12-23T04:08:24.846Z,8.00
2018-12-23T04:10:55.543Z,8.00
2018-12-23T04:13:42.651Z,8.00
2018-12-23T04:16:12.606Z,8.00
2018-12-23T04:18:42.687Z,8.00
2018-12-23T04:21:21.583Z,8.00
2018-12-23T04:24:05.845Z,8.00
2018-12-23T04:26:39.012Z,8.00
2018-12-23T04:29:08.980Z,8.00
2018-12-23T04:31:38.948Z,8.00
2018-12-23T04:34:10.894Z,8.00
2018-12-23T04:36:40.792Z,8.10
2018-12-23T04:39:12.735Z,8.00
2018-12-23T04:41:48.784Z,8.00
2018-12-23T04:44:24.709Z,8.00
2018-12-23T04:46:54.719Z,8.00
2018-12-23T04:49:24.599Z,8.00
2018-12-23T04:51:54.513Z,8.00
2018-12-23T04:54:24.400Z,8.10
2018-12-23T04:56:55.338Z,8.00
2018-12-23T04:59:25.259Z,8.00
2018-12-23T05:01:55.169Z,8.00
2018-12-23T05:04:25.051Z,8.00
2018-12-23T05:06:55.096Z,8.00
2018-12-23T05:09:25.088Z,8.00
2018-12-23T05:11:55.072Z,8.00
2018-12-23T05:14:26.048Z,8.00
2018-12-23T05:16:56.993Z,8.00
2018-12-23T05:19:26.975Z,8.00
2018-12-23T05:21:58.040Z,8.10
2018-12-23T05:24:29.929Z,8.10
2018-12-23T05:26:59.881Z,8.10
2018-12-23T05:29:29.785Z,8.10
2018-12-23T05:31:59.734Z,8.10
2018-12-23T05:34:29.644Z,8.10
2018-12-23T05:36:59.581Z,8.10
2018-12-23T05:39:36.588Z,8.10
2018-12-23T05:42:09.715Z,8.10
2018-12-23T05:44:39.681Z,8.10
2018-12-23T05:47:09.609Z,8.10
2018-12-23T05:49:39.531Z,8.10
2018-12-23T05:52:09.468Z,8.10
2018-12-23T05:54:40.424Z,8.10
2018-12-23T05:57:15.725Z,8.10
2018-12-23T05:59:55.625Z,8.10
2018-12-23T06:02:27.608Z,8.10
2018-12-23T06:05:02.242Z,8.10
2018-12-23T06:07:32.179Z,8.10
2018-12-23T06:10:05.190Z,8.10
2018-12-23T06:12:35.134Z,8.10
2018-12-23T06:15:05.017Z,8.10
2018-12-23T06:17:36.021Z,8.10
2018-12-23T06:20:06.075Z,8.10
2018-12-23T06:22:38.015Z,8.10
2018-12-23T06:25:08.920Z,8.10
2018-12-23T06:27:40.970Z,8.10
2018-12-23T06:30:12.902Z,8.10
2018-12-23T06:32:43.916Z,8.10
2018-12-23T06:35:13.884Z,8.10
2018-12-23T06:37:50.767Z,8.10
2018-12-23T06:40:22.672Z,8.10
2018-12-23T06:42:57.649Z,8.10
2018-12-23T06:45:27.647Z,8.10
2018-12-23T06:47:57.638Z,8.10
2018-12-23T06:50:29.520Z,8.10
2018-12-23T06:53:03.540Z,8.10
2018-12-23T06:55:33.498Z,8.10
2018-12-23T06:58:04.511Z,8.10
2018-12-23T07:00:34.517Z,8.10
2018-12-23T07:03:04.585Z,8.10
2018-12-23T07:05:34.498Z,8.10
2018-12-23T07:08:09.719Z,8.10
2018-12-23T07:10:46.968Z,8.20
2018-12-23T07:13:17.903Z,8.20
2018-12-23T07:15:47.864Z,8.20
2018-12-23T07:18:18.789Z,8.20
2018-12-23T07:20:50.642Z,8.20
2018-12-23T07:23:23.631Z,8.20
2018-12-23T07:25:53.600Z,8.20
2018-12-23T07:28:23.528Z,8.20
2018-12-23T07:30:55.456Z,8.30
2018-12-23T07:33:25.399Z,8.30
2018-12-23T07:35:59.723Z,8.30
2018-12-23T07:38:31.814Z,8.30
2018-12-23T07:41:08.875Z,8.30
2018-12-23T07:43:39.787Z,8.30
2018-12-23T07:46:09.754Z,8.40
2018-12-23T07:48:42.915Z,8.40
2018-12-23T07:51:12.900Z,8.40
2018-12-23T07:53:42.835Z,8.40
2018-12-23T07:56:20.954Z,8.40
2018-12-23T07:58:50.880Z,8.40
2018-12-23T08:01:20.922Z,8.40
2018-12-23T08:03:50.875Z,8.40
2018-12-23T08:06:21.802Z,8.40
2018-12-23T08:08:51.788Z,8.40
2018-12-23T08:11:21.712Z,8.50
2018-12-23T08:13:51.623Z,8.50
2018-12-23T08:16:21.564Z,8.50
2018-12-23T08:18:51.655Z,8.50
2018-12-23T08:21:21.627Z,8.50
2018-12-23T08:23:52.583Z,8.50
2018-12-23T08:26:22.561Z,8.50
2018-12-23T08:28:52.512Z,8.50
2018-12-23T08:31:22.441Z,8.50
2018-12-23T08:33:52.358Z,8.50
2018-12-23T08:36:28.260Z,8.50
2018-12-23T08:38:59.205Z,8.60
2018-12-23T08:41:30.133Z,8.60
2018-12-23T08:44:00.364Z,8.60
2018-12-23T08:46:38.918Z,8.70
2018-12-23T08:49:10.668Z,8.70
2018-12-23T08:51:40.645Z,8.70
2018-12-23T08:54:10.532Z,8.70
2018-12-23T08:56:42.461Z,8.80
2018-12-23T08:59:12.528Z,8.80
2018-12-23T09:01:54.849Z,8.90
2018-12-23T09:04:24.808Z,8.90
2018-12-23T09:06:54.713Z,8.90
2018-12-23T09:09:33.796Z,8.90
2018-12-23T09:12:06.220Z,8.90
2018-12-23T09:14:37.198Z,8.90
2018-12-23T09:17:09.161Z,8.90
2018-12-23T09:19:39.176Z,8.90
2018-12-23T09:22:10.072Z,9.00
2018-12-23T09:24:41.059Z,9.00
2018-12-23T09:27:11.029Z,9.00
2018-12-23T09:29:40.989Z,9.10
2018-12-23T09:32:16.832Z,9.10
2018-12-23T09:34:47.797Z,9.10
2018-12-23T09:37:19.626Z,9.10
2018-12-23T09:39:49.618Z,9.10
2018-12-23T09:42:19.483Z,9.20
2018-12-23T09:44:49.446Z,9.20
2018-12-23T09:47:23.062Z,9.20
2018-12-23T09:49:54.143Z,9.20
2018-12-23T09:52:25.609Z,9.20
2018-12-23T09:54:55.524Z,9.20
2018-12-23T09:57:26.456Z,9.20
2018-12-23T10:00:05.499Z,9.20
2018-12-23T10:02:35.375Z,9.20
2018-12-23T10:05:05.588Z,9.20
2018-12-23T10:07:37.539Z,9.30
2018-12-23T10:10:07.576Z,9.30
2018-12-23T10:12:37.452Z,9.30
2018-12-23T10:15:08.056Z,9.30
2018-12-23T10:17:37.981Z,9.30
2018-12-23T10:20:08.434Z,9.30
2018-12-23T10:22:39.336Z,9.30
2018-12-23T10:25:09.492Z,9.30
2018-12-23T10:27:39.544Z,9.30
2018-12-23T10:30:24.507Z,9.30
2018-12-23T10:32:54.502Z,9.30
2018-12-23T10:35:24.470Z,9.40
2018-12-23T10:37:55.433Z,9.40
2018-12-23T10:40:30.512Z,9.30
2018-12-23T10:43:01.491Z,9.30
2018-12-23T10:45:32.471Z,9.30
2018-12-23T10:48:08.467Z,9.30
2018-12-23T10:50:38.327Z,9.40
2018-12-23T10:53:08.312Z,9.40
2018-12-23T10:55:40.287Z,9.40
2018-12-23T10:58:12.224Z,9.40
2018-12-23T11:00:42.129Z,9.40
2018-12-23T11:03:12.108Z,9.40
2018-12-23T11:05:43.989Z,9.30
2018-12-23T11:08:13.908Z,9.30
2018-12-23T11:10:43.793Z,9.30
2018-12-23T11:13:13.778Z,9.30
2018-12-23T11:15:50.912Z,9.30
2018-12-23T11:18:21.773Z,9.20
2018-12-23T11:20:51.672Z,9.10
2018-12-23T11:23:23.579Z,9.10
2018-12-23T11:26:04.725Z,9.10
2018-12-23T11:28:34.714Z,9.00
2018-12-23T11:31:04.608Z,9.00
2018-12-23T11:33:34.643Z,8.90
2018-12-23T11:36:04.552Z,8.90
2018-12-23T11:38:35.638Z,8.80
2018-12-23T11:41:05.868Z,8.70
2018-12-23T11:43:35.786Z,8.70
2018-12-23T11:46:05.803Z,8.70
2018-12-23T11:48:37.604Z,8.70
2018-12-23T11:51:08.549Z,8.60
2018-12-23T11:53:42.562Z,8.60
2018-12-23T11:56:12.508Z,8.60
2018-12-23T11:58:51.719Z,8.60
2018-12-23T12:01:21.729Z,8.60
2018-12-23T12:03:51.662Z,8.60
2018-12-23T12:06:21.621Z,8.50
2018-12-23T12:08:51.543Z,8.50
2018-12-23T12:11:21.496Z,8.50
2018-12-23T12:13:53.443Z,8.50
2018-12-23T12:16:34.591Z,8.50
2018-12-23T12:19:04.440Z,8.50
2018-12-23T12:21:34.426Z,8.50
2018-12-23T12:24:06.412Z,8.50
2018-12-23T12:26:36.321Z,8.50
2018-12-23T12:29:11.474Z,8.50
2018-12-23T12:31:58.486Z,8.50
2018-12-23T12:34:29.307Z,8.50
2018-12-23T12:37:00.211Z,8.50
2018-12-23T12:39:30.145Z,8.40
2018-12-23T12:42:02.156Z,8.40
2018-12-23T12:44:32.074Z,8.40
2018-12-23T12:47:05.988Z,8.30
2018-12-23T12:49:35.907Z,8.30
2018-12-23T12:52:06.857Z,8.20
2018-12-23T12:54:36.763Z,8.20
2018-12-23T12:57:06.706Z,8.20
2018-12-23T12:59:39.436Z,8.10
2018-12-23T13:02:10.342Z,8.10
2018-12-23T13:04:41.257Z,8.20
2018-12-23T13:07:11.232Z,8.20
2018-12-23T13:09:41.149Z,8.10
2018-12-23T13:12:13.423Z,8.10
2018-12-23T13:14:43.334Z,8.10
2018-12-23T13:17:14.321Z,8.10
2018-12-23T13:19:51.011Z,8.10
2018-12-23T13:22:22.904Z,8.10
2018-12-23T13:24:52.833Z,8.00
2018-12-23T13:27:28.585Z,8.00
2018-12-23T13:30:02.604Z,8.00
2018-12-23T13:32:38.443Z,8.00
2018-12-23T13:35:09.425Z,8.00
2018-12-23T13:37:39.367Z,8.00
2018-12-23T13:40:31.168Z,8.00
2018-12-23T13:43:42.927Z,8.00
2018-12-23T13:46:48.685Z,8.00
2018-12-23T13:49:54.324Z,8.00
2018-12-23T13:52:46.162Z,8.00
2018-12-23T13:55:41.432Z,7.90
2018-12-23T13:58:47.692Z,8.00
2018-12-23T14:02:01.603Z,7.90
2018-12-23T14:05:10.054Z,7.90
2018-12-23T14:08:13.031Z,8.00
2018-12-23T14:11:16.468Z,8.00
2018-12-23T14:13:49.481Z,8.10
2018-12-23T14:16:28.704Z,8.10
2018-12-23T14:18:58.631Z,8.10
2018-12-23T14:21:28.684Z,8.10
2018-12-23T14:23:58.679Z,8.20
2018-12-23T14:26:30.647Z,8.20
2018-12-23T14:29:08.606Z,8.20
2018-12-23T14:31:46.307Z,8.20
2018-12-23T14:34:16.286Z,8.30
2018-12-23T14:37:01.660Z,8.30
2018-12-23T14:39:31.608Z,8.30
2018-12-23T14:42:02.520Z,8.20
2018-12-23T14:44:32.470Z,8.20
2018-12-23T14:47:04.591Z,8.20
2018-12-23T14:49:35.473Z,8.20
2018-12-23T14:52:08.572Z,8.20
2018-12-23T14:54:39.577Z,8.20
2018-12-23T14:57:13.595Z,8.20
2018-12-23T14:59:43.452Z,8.20
2018-12-23T15:02:19.547Z,8.10
2018-12-23T15:04:49.457Z,8.10
2018-12-23T15:07:19.516Z,8.10
2018-12-23T15:09:51.514Z,8.10
2018-12-23T15:12:22.401Z,8.10
2018-12-23T15:14:52.407Z,8.10
2018-12-23T15:17:22.433Z,8.00
2018-12-23T15:19:52.300Z,8.00
2018-12-23T15:22:22.349Z,8.00
2018-12-23T15:24:52.297Z,7.90
2018-12-23T15:27:23.225Z,8.00
2018-12-23T15:29:54.301Z,8.00
2018-12-23T15:32:30.223Z,8.00
2018-12-23T15:35:00.176Z,8.00
2018-12-23T15:37:30.212Z,8.00
2018-12-23T15:40:00.504Z,8.00
2018-12-23T15:42:32.415Z,8.00
2018-12-23T15:45:02.459Z,8.00
2018-12-23T15:47:32.389Z,8.00
2018-12-23T15:50:04.280Z,8.00
2018-12-23T15:52:37.324Z,8.00
2018-12-23T15:55:07.368Z,8.00
2018-12-23T15:57:37.369Z,8.00
2018-12-23T16:00:07.732Z,7.90
2018-12-23T16:02:37.682Z,7.90
2018-12-23T16:05:07.698Z,7.90
2018-12-23T16:07:37.712Z,7.90
2018-12-23T16:10:09.112Z,7.90
2018-12-23T16:12:40.044Z,7.90
2018-12-23T16:15:10.009Z,7.90
2018-12-23T16:17:45.781Z,7.90
2018-12-23T16:20:16.509Z,7.90
2018-12-23T16:22:52.295Z,7.90
2018-12-23T16:25:23.255Z,7.90
2018-12-23T16:27:59.193Z,7.90
2018-12-23T16:30:29.149Z,7.80
2018-12-23T16:32:59.066Z,7.80
2018-12-23T16:35:28.993Z,7.80
2018-12-23T16:38:03.786Z,7.80
2018-12-23T16:40:33.820Z,7.80
2018-12-23T16:43:03.793Z,7.80
2018-12-23T16:45:34.658Z,7.80
2018-12-23T16:48:04.554Z,7.80
2018-12-23T16:50:34.546Z,7.80
2018-12-23T16:53:05.417Z,7.80
2018-12-23T16:55:38.388Z,7.80
2018-12-23T16:58:17.449Z,7.80
2018-12-23T17:00:49.352Z,7.80
2018-12-23T17:03:19.541Z,7.90
2018-12-23T17:05:49.488Z,7.90
2018-12-23T17:08:20.542Z,7.90
2018-12-23T17:10:51.621Z,7.80
2018-12-23T17:13:30.449Z,7.80
2018-12-23T17:16:02.434Z,7.80
2018-12-23T17:18:32.366Z,7.80
2018-12-23T17:21:05.514Z,7.80
2018-12-23T17:23:35.522Z,7.80
2018-12-23T17:26:05.478Z,7.70
2018-12-23T17:28:36.988Z,7.80
2018-12-23T17:31:13.006Z,7.70
2018-12-23T17:33:43.002Z,7.70
2018-12-23T17:36:13.873Z,7.70
2018-12-23T17:38:44.876Z,7.70
2018-12-23T17:41:14.794Z,7.70
2018-12-23T17:43:46.246Z,7.70
2018-12-23T17:46:18.201Z,7.70
2018-12-23T17:48:51.211Z,7.80
2018-12-23T17:51:21.168Z,7.80
2018-12-23T17:53:52.137Z,7.80
2018-12-23T17:56:27.750Z,7.80
2018-12-23T17:58:57.642Z,7.80
2018-12-23T18:01:27.560Z,7.80
2018-12-23T18:04:02.312Z,7.80
2018-12-23T18:06:29.128Z,7.80
2018-12-23T18:08:59.067Z,7.80
2018-12-23T18:11:28.962Z,7.80
2018-12-23T18:13:58.984Z,7.90
2018-12-23T18:16:28.867Z,7.90
2018-12-23T18:18:59.808Z,7.80
2018-12-23T18:21:35.673Z,7.90
2018-12-23T18:24:07.668Z,7.80
2018-12-23T18:26:54.448Z,7.90
2018-12-23T18:29:26.007Z,7.90
2018-12-23T18:32:03.890Z,7.90
2018-12-23T18:34:36.805Z,7.90
2018-12-23T18:37:09.049Z,7.90
2018-12-23T18:39:41.992Z,7.90
2018-12-23T18:42:14.549Z,7.90
2018-12-23T18:44:46.100Z,7.90
2018-12-23T18:47:20.026Z,7.90
2018-12-23T18:49:53.818Z,7.90
2018-12-23T18:52:27.340Z,7.90
2018-12-23T18:55:09.985Z,7.90
2018-12-23T18:57:45.159Z,7.90
2018-12-23T19:00:16.944Z,7.80
2018-12-23T19:02:56.122Z,7.80
2018-12-23T19:05:27.755Z,7.80
2018-12-23T19:08:07.038Z,7.80
2018-12-23T19:11:22.375Z,7.80
2018-12-23T19:14:19.167Z,7.80
2018-12-23T19:17:16.010Z,7.80
2018-12-23T19:20:25.592Z,7.70
2018-12-23T19:23:33.413Z,7.80
2018-12-23T19:26:47.196Z,7.70
2018-12-23T19:29:44.233Z,7.70
2018-12-23T19:32:58.619Z,7.80
2018-12-23T19:35:56.178Z,7.80
2018-12-23T19:39:24.353Z,7.80
2018-12-23T19:42:48.464Z,7.70
2018-12-23T19:45:53.217Z,7.70
2018-12-23T19:48:58.738Z,7.70
2018-12-23T19:52:10.326Z,7.70
2018-12-23T19:55:14.773Z,7.70
2018-12-23T19:58:26.394Z,7.70
2018-12-23T20:01:16.503Z,7.70
2018-12-23T20:04:42.592Z,7.70
2018-12-23T20:08:03.664Z,7.70
2018-12-23T20:11:06.696Z,7.60
2018-12-23T20:14:18.633Z,7.60
2018-12-23T20:17:32.177Z,7.60
2018-12-23T20:20:45.456Z,7.60
2018-12-23T20:24:11.390Z,7.40
2018-12-23T20:27:17.456Z,7.20
2018-12-23T20:30:26.951Z,7.10
2018-12-23T20:33:23.480Z,7.00
2018-12-23T20:36:29.579Z,7.00
2018-12-23T20:39:45.937Z,6.90
2018-12-23T20:42:49.089Z,6.90
2018-12-23T20:45:56.329Z,6.90
2018-12-23T20:49:07.329Z,6.90
2018-12-23T20:52:18.780Z,6.80
2018-12-23T20:55:18.468Z,6.90
2018-12-23T20:58:25.110Z,6.80
2018-12-23T21:01:23.607Z,6.70
2018-12-23T21:04:42.154Z,6.70
2018-12-23T21:07:50.747Z,6.70
2018-12-23T21:10:57.611Z,6.70
2018-12-23T21:13:52.337Z,6.70
2018-12-23T21:16:48.150Z,6.60
2018-12-23T21:19:52.224Z,6.60
2018-12-23T21:23:02.311Z,6.50
2018-12-23T21:26:30.251Z,6.60
2018-12-23T21:29:21.769Z,6.50
2018-12-23T21:32:23.090Z,6.50
2018-12-23T21:35:39.866Z,6.50
2018-12-23T21:38:55.757Z,6.50
2018-12-23T21:42:11.028Z,6.50
2018-12-23T21:45:36.636Z,6.50
2018-12-23T21:48:30.556Z,6.40
2018-12-23T21:51:51.986Z,6.50
2018-12-23T21:54:57.347Z,6.50
2018-12-23T21:58:07.946Z,6.50
2018-12-23T22:01:04.793Z,6.50
2018-12-23T22:04:17.732Z,6.50
2018-12-23T22:07:27.247Z,6.40
2018-12-23T22:10:19.564Z,6.40
2018-12-23T22:13:28.366Z,6.30
2018-12-23T22:15:58.431Z,6.20
2018-12-23T22:18:41.272Z,6.20
2018-12-23T22:21:11.195Z,6.20
2018-12-23T22:23:43.127Z,6.30
2018-12-23T22:26:13.132Z,6.30
2018-12-23T22:28:43.006Z,6.30
2018-12-23T22:31:12.947Z,6.30
2018-12-23T22:33:44.868Z,6.30
2018-12-23T22:36:15.796Z,6.20
2018-12-23T22:38:45.725Z,6.10
2018-12-23T22:41:21.194Z,6.10
2018-12-23T22:43:51.109Z,6.10
2018-12-23T22:46:21.985Z,6.10
2018-12-23T22:48:51.923Z,6.10
2018-12-23T22:51:21.793Z,6.20
2018-12-23T22:53:54.818Z,6.20
2018-12-23T22:56:32.049Z,6.10
2018-12-23T22:59:01.956Z,6.10
2018-12-23T23:01:33.907Z,6.10
2018-12-23T23:04:07.912Z,6.10
2018-12-23T23:06:37.934Z,6.10
2018-12-23T23:09:10.067Z,6.10
2018-12-23T23:11:53.045Z,6.00
2018-12-23T23:14:23.921Z,6.00
2018-12-23T23:16:54.857Z,5.90
2018-12-23T23:19:24.822Z,5.90
2018-12-23T23:21:57.700Z,5.90
2018-12-23T23:24:36.770Z,5.90
2018-12-23T23:27:06.601Z,5.90
2018-12-23T23:29:37.629Z,5.90
2018-12-23T23:32:08.568Z,5.80
2018-12-23T23:34:38.574Z,5.70
2018-12-23T23:37:14.776Z,5.70
2018-12-23T23:39:45.752Z,5.70
2018-12-23T23:42:17.674Z,5.70
2018-12-23T23:44:47.498Z,5.70
2018-12-23T23:47:17.440Z,5.60
2018-12-23T23:49:47.424Z,5.60
2018-12-23T23:52:20.322Z,5.60
2018-12-23T23:55:05.678Z,5.50
2018-12-23T23:57:36.551Z,5.60
